sensor_id;sensor_type;location;lat;lon;timestamp;temperature;humidity
35635;DHT22;21757;43.610;1.440;2023-01-05T00:01:11;8.20;99.90
35635;DHT22;21757;43.610;1.440;2023-01-05T00:03:37;8.20;99.90
35635;DHT22;21757;43.610;1.440;2023-01-05T00:06:09;8.20;99.90
35635;DHT22;21757;43.610;1.440;2023-01-05T00:08:35;8.20;99.90
35635;DHT22;21757;43.610;1.440;2023-01-05T00:11:13;8.20;99.90
35635;DHT22;21757;43.610;1.440;2023-01-05T00:13:58;8.20;99.90
35635;DHT22;21757;43.610;1.440;2023-01-05T00:16:43;8.20;99.90
35635;DHT22;21757;43.610;1.440;2023-01-05T00:19:27;8.20;99.90
35635;DHT22;21757;43.610;1.440;2023-01-05T00:22:20;8.20;99.90
35635;DHT22;21757;43.610;1.440;2023-01-05T00:25:03;8.20;99.90
35635;DHT22;21757;43.610;1.440;2023-01-05T00:27:31;8.20;99.90
35635;DHT22;21757;43.610;1.440;2023-01-05T00:29:57;8.20;99.90
35635;DHT22;21757;43.610;1.440;2023-01-05T00:32:23;8.30;99.90
35635;DHT22;21757;43.610;1.440;2023-01-05T00:34:49;8.30;99.90
35635;DHT22;21757;43.610;1.440;2023-01-05T00:37:15;8.30;99.90
35635;DHT22;21757;43.610;1.440;2023-01-05T00:39:42;8.20;99.90
35635;DHT22;21757;43.610;1.440;2023-01-05T00:42:07;8.20;99.90
35635;DHT22;21757;43.610;1.440;2023-01-05T00:44:33;8.20;99.90
35635;DHT22;21757;43.610;1.440;2023-01-05T00:46:59;8.20;99.90
35635;DHT22;21757;43.610;1.440;2023-01-05T00:49:24;8.20;99.90
35635;DHT22;21757;43.610;1.440;2023-01-05T00:51:50;8.20;99.90
35635;DHT22;21757;43.610;1.440;2023-01-05T00:54:15;8.20;99.90
35635;DHT22;21757;43.610;1.440;2023-01-05T00:56:41;8.20;99.90
35635;DHT22;21757;43.610;1.440;2023-01-05T00:59:08;8.20;99.90
35635;DHT22;21757;43.610;1.440;2023-01-05T01:01:34;8.30;99.90
35635;DHT22;21757;43.610;1.440;2023-01-05T01:03:59;8.20;99.90
35635;DHT22;21757;43.610;1.440;2023-01-05T01:06:26;8.20;99.90
35635;DHT22;21757;43.610;1.440;2023-01-05T01:08:52;8.20;99.90
35635;DHT22;21757;43.610;1.440;2023-01-05T01:11:18;8.20;99.90
35635;DHT22;21757;43.610;1.440;2023-01-05T01:13:45;8.20;99.90
35635;DHT22;21757;43.610;1.440;2023-01-05T01:16:13;8.20;99.90
35635;DHT22;21757;43.610;1.440;2023-01-05T01:18:40;8.20;99.90
35635;DHT22;21757;43.610;1.440;2023-01-05T01:21:06;8.20;99.90
35635;DHT22;21757;43.610;1.440;2023-01-05T01:23:32;8.20;99.90
35635;DHT22;21757;43.610;1.440;2023-01-05T01:26:06;8.30;99.90
35635;DHT22;21757;43.610;1.440;2023-01-05T01:28:32;8.30;99.90
35635;DHT22;21757;43.610;1.440;2023-01-05T01:30:58;8.30;99.90
35635;DHT22;21757;43.610;1.440;2023-01-05T01:33:24;8.30;99.90
35635;DHT22;21757;43.610;1.440;2023-01-05T01:35:50;8.30;99.90
35635;DHT22;21757;43.610;1.440;2023-01-05T01:38:15;8.20;99.90
35635;DHT22;21757;43.610;1.440;2023-01-05T01:40:43;8.30;99.90
35635;DHT22;21757;43.610;1.440;2023-01-05T01:43:18;8.30;99.90
35635;DHT22;21757;43.610;1.440;2023-01-05T01:45:44;8.30;99.90
35635;DHT22;21757;43.610;1.440;2023-01-05T01:48:14;8.30;99.90
35635;DHT22;21757;43.610;1.440;2023-01-05T01:50:51;8.30;99.90
35635;DHT22;21757;43.610;1.440;2023-01-05T01:53:34;8.20;99.90
35635;DHT22;21757;43.610;1.440;2023-01-05T01:56:04;8.20;99.90
35635;DHT22;21757;43.610;1.440;2023-01-05T01:58:31;8.20;99.90
35635;DHT22;21757;43.610;1.440;2023-01-05T02:00:58;8.20;99.90
35635;DHT22;21757;43.610;1.440;2023-01-05T02:03:29;8.30;99.90
35635;DHT22;21757;43.610;1.440;2023-01-05T02:05:55;8.20;99.90
35635;DHT22;21757;43.610;1.440;2023-01-05T02:08:21;8.30;99.90
35635;DHT22;21757;43.610;1.440;2023-01-05T02:36:38;8.30;99.90
35635;DHT22;21757;43.610;1.440;2023-01-05T02:39:18;8.30;99.90
35635;DHT22;21757;43.610;1.440;2023-01-05T02:42:11;8.40;99.90
35635;DHT22;21757;43.610;1.440;2023-01-05T02:44:37;8.40;99.90
35635;DHT22;21757;43.610;1.440;2023-01-05T02:47:06;8.40;99.90
35635;DHT22;21757;43.610;1.440;2023-01-05T02:49:36;8.40;99.90
35635;DHT22;21757;43.610;1.440;2023-01-05T02:52:04;8.30;99.90
35635;DHT22;21757;43.610;1.440;2023-01-05T02:54:36;8.30;99.90
35635;DHT22;21757;43.610;1.440;2023-01-05T03:00:25;8.30;99.90
35635;DHT22;21757;43.610;1.440;2023-01-05T03:03:03;8.30;99.90
35635;DHT22;21757;43.610;1.440;2023-01-05T03:05:40;8.40;99.90
35635;DHT22;21757;43.610;1.440;2023-01-05T03:08:09;8.40;99.90
35635;DHT22;21757;43.610;1.440;2023-01-05T03:13:41;8.40;99.90
35635;DHT22;21757;43.610;1.440;2023-01-05T03:16:17;8.40;99.90
35635;DHT22;21757;43.610;1.440;2023-01-05T03:18:45;8.40;99.90
35635;DHT22;21757;43.610;1.440;2023-01-05T03:21:30;8.40;99.90
35635;DHT22;21757;43.610;1.440;2023-01-05T03:24:14;8.40;99.90
35635;DHT22;21757;43.610;1.440;2023-01-05T03:27:00;8.50;99.90
35635;DHT22;21757;43.610;1.440;2023-01-05T03:29:44;8.40;99.90
35635;DHT22;21757;43.610;1.440;2023-01-05T03:32:29;8.50;99.90
35635;DHT22;21757;43.610;1.440;2023-01-05T03:35:21;8.40;99.90
35635;DHT22;21757;43.610;1.440;2023-01-05T03:38:11;8.50;99.90
35635;DHT22;21757;43.610;1.440;2023-01-05T03:40:39;8.50;99.90
35635;DHT22;21757;43.610;1.440;2023-01-05T03:43:05;8.50;99.90
35635;DHT22;21757;43.610;1.440;2023-01-05T03:45:41;8.50;99.90
35635;DHT22;21757;43.610;1.440;2023-01-05T03:48:07;8.60;99.90
35635;DHT22;21757;43.610;1.440;2023-01-05T03:50:34;8.50;99.90
35635;DHT22;21757;43.610;1.440;2023-01-05T03:53:00;8.50;99.90
35635;DHT22;21757;43.610;1.440;2023-01-05T03:55:26;8.50;99.90
35635;DHT22;21757;43.610;1.440;2023-01-05T03:57:51;8.50;99.90
35635;DHT22;21757;43.610;1.440;2023-01-05T04:00:17;8.50;99.90
35635;DHT22;21757;43.610;1.440;2023-01-05T04:02:43;8.50;99.90
35635;DHT22;21757;43.610;1.440;2023-01-05T04:05:09;8.60;99.90
35635;DHT22;21757;43.610;1.440;2023-01-05T04:07:34;8.60;99.90
35635;DHT22;21757;43.610;1.440;2023-01-05T04:10:00;8.60;99.90
35635;DHT22;21757;43.610;1.440;2023-01-05T04:12:26;8.60;99.90
35635;DHT22;21757;43.610;1.440;2023-01-05T04:14:52;8.60;99.90
35635;DHT22;21757;43.610;1.440;2023-01-05T04:17:18;8.50;99.90
35635;DHT22;21757;43.610;1.440;2023-01-05T04:19:43;8.50;99.90
35635;DHT22;21757;43.610;1.440;2023-01-05T04:22:09;8.50;99.90
35635;DHT22;21757;43.610;1.440;2023-01-05T04:24:34;8.60;99.90
35635;DHT22;21757;43.610;1.440;2023-01-05T04:27:00;8.60;99.90
35635;DHT22;21757;43.610;1.440;2023-01-05T04:29:26;8.60;99.90
35635;DHT22;21757;43.610;1.440;2023-01-05T04:31:51;8.60;99.90
35635;DHT22;21757;43.610;1.440;2023-01-05T04:34:17;8.60;99.90
35635;DHT22;21757;43.610;1.440;2023-01-05T04:36:43;8.60;99.90
35635;DHT22;21757;43.610;1.440;2023-01-05T04:39:08;8.60;99.90
35635;DHT22;21757;43.610;1.440;2023-01-05T04:41:34;8.60;99.90
35635;DHT22;21757;43.610;1.440;2023-01-05T04:44:00;8.60;99.90
35635;DHT22;21757;43.610;1.440;2023-01-05T04:46:25;8.60;99.90
35635;DHT22;21757;43.610;1.440;2023-01-05T04:48:51;8.60;99.90
35635;DHT22;21757;43.610;1.440;2023-01-05T04:51:16;8.60;99.90
35635;DHT22;21757;43.610;1.440;2023-01-05T04:53:42;8.60;99.90
35635;DHT22;21757;43.610;1.440;2023-01-05T04:56:08;8.60;99.90
35635;DHT22;21757;43.610;1.440;2023-01-05T04:58:35;8.60;99.90
35635;DHT22;21757;43.610;1.440;2023-01-05T05:01:01;8.60;99.90
35635;DHT22;21757;43.610;1.440;2023-01-05T05:03:26;8.60;99.90
35635;DHT22;21757;43.610;1.440;2023-01-05T05:05:52;8.60;99.90
35635;DHT22;21757;43.610;1.440;2023-01-05T05:08:18;8.60;99.90
35635;DHT22;21757;43.610;1.440;2023-01-05T05:10:46;8.70;99.90
35635;DHT22;21757;43.610;1.440;2023-01-05T05:13:12;8.70;99.90
35635;DHT22;21757;43.610;1.440;2023-01-05T05:15:38;8.60;99.90
35635;DHT22;21757;43.610;1.440;2023-01-05T05:18:03;8.60;99.90
35635;DHT22;21757;43.610;1.440;2023-01-05T05:20:29;8.60;99.90
35635;DHT22;21757;43.610;1.440;2023-01-05T05:22:55;8.60;99.90
35635;DHT22;21757;43.610;1.440;2023-01-05T05:25:20;8.60;99.90
35635;DHT22;21757;43.610;1.440;2023-01-05T05:27:46;8.60;99.90
35635;DHT22;21757;43.610;1.440;2023-01-05T05:30:12;8.60;99.90
35635;DHT22;21757;43.610;1.440;2023-01-05T05:32:38;8.60;99.90
35635;DHT22;21757;43.610;1.440;2023-01-05T05:35:04;8.60;99.90
35635;DHT22;21757;43.610;1.440;2023-01-05T05:37:29;8.60;99.90
35635;DHT22;21757;43.610;1.440;2023-01-05T05:39:55;8.60;99.90
35635;DHT22;21757;43.610;1.440;2023-01-05T05:42:21;8.60;99.90
35635;DHT22;21757;43.610;1.440;2023-01-05T05:44:46;8.60;99.90
35635;DHT22;21757;43.610;1.440;2023-01-05T05:47:12;8.60;99.90
35635;DHT22;21757;43.610;1.440;2023-01-05T05:49:38;8.70;99.90
35635;DHT22;21757;43.610;1.440;2023-01-05T05:52:03;8.60;99.90
35635;DHT22;21757;43.610;1.440;2023-01-05T05:54:29;8.70;99.90
35635;DHT22;21757;43.610;1.440;2023-01-05T05:56:55;8.70;99.90
35635;DHT22;21757;43.610;1.440;2023-01-05T05:59:20;8.70;99.90
35635;DHT22;21757;43.610;1.440;2023-01-05T06:01:47;8.60;99.90
35635;DHT22;21757;43.610;1.440;2023-01-05T06:04:14;8.60;99.90
35635;DHT22;21757;43.610;1.440;2023-01-05T06:06:39;8.60;99.90
35635;DHT22;21757;43.610;1.440;2023-01-05T06:09:05;8.60;99.90
35635;DHT22;21757;43.610;1.440;2023-01-05T06:11:31;8.60;99.90
35635;DHT22;21757;43.610;1.440;2023-01-05T06:13:56;8.60;99.90
35635;DHT22;21757;43.610;1.440;2023-01-05T06:16:22;8.70;99.90
35635;DHT22;21757;43.610;1.440;2023-01-05T06:18:48;8.60;99.90
35635;DHT22;21757;43.610;1.440;2023-01-05T06:21:13;8.70;99.90
35635;DHT22;21757;43.610;1.440;2023-01-05T06:23:39;8.70;99.90
35635;DHT22;21757;43.610;1.440;2023-01-05T06:26:04;8.70;99.90
35635;DHT22;21757;43.610;1.440;2023-01-05T06:28:30;8.70;99.90
35635;DHT22;21757;43.610;1.440;2023-01-05T06:30:56;8.70;99.90
35635;DHT22;21757;43.610;1.440;2023-01-05T06:33:22;8.70;99.90
35635;DHT22;21757;43.610;1.440;2023-01-05T06:35:47;8.70;99.90
35635;DHT22;21757;43.610;1.440;2023-01-05T06:38:13;8.70;99.90
35635;DHT22;21757;43.610;1.440;2023-01-05T06:40:40;8.70;99.90
35635;DHT22;21757;43.610;1.440;2023-01-05T06:43:10;8.70;99.90
35635;DHT22;21757;43.610;1.440;2023-01-05T06:45:35;8.70;99.90
35635;DHT22;21757;43.610;1.440;2023-01-05T06:48:01;8.70;99.90
35635;DHT22;21757;43.610;1.440;2023-01-05T06:50:28;8.70;99.90
35635;DHT22;21757;43.610;1.440;2023-01-05T06:52:54;8.60;99.90
35635;DHT22;21757;43.610;1.440;2023-01-05T06:55:20;8.60;99.90
35635;DHT22;21757;43.610;1.440;2023-01-05T06:57:49;8.70;99.90
35635;DHT22;21757;43.610;1.440;2023-01-05T07:00:15;8.70;99.90
35635;DHT22;21757;43.610;1.440;2023-01-05T07:02:40;8.80;99.90
35635;DHT22;21757;43.610;1.440;2023-01-05T07:05:07;8.70;99.90
35635;DHT22;21757;43.610;1.440;2023-01-05T07:07:33;8.80;99.90
35635;DHT22;21757;43.610;1.440;2023-01-05T07:09:59;8.80;99.90
35635;DHT22;21757;43.610;1.440;2023-01-05T07:12:25;8.80;99.90
35635;DHT22;21757;43.610;1.440;2023-01-05T07:14:51;8.80;99.90
35635;DHT22;21757;43.610;1.440;2023-01-05T07:17:16;8.80;99.90
35635;DHT22;21757;43.610;1.440;2023-01-05T07:19:42;8.80;99.90
35635;DHT22;21757;43.610;1.440;2023-01-05T07:22:08;8.80;99.90
35635;DHT22;21757;43.610;1.440;2023-01-05T07:24:33;8.80;99.90
35635;DHT22;21757;43.610;1.440;2023-01-05T07:26:59;8.80;99.90
35635;DHT22;21757;43.610;1.440;2023-01-05T07:29:25;8.90;99.90
35635;DHT22;21757;43.610;1.440;2023-01-05T07:31:51;8.90;99.90
35635;DHT22;21757;43.610;1.440;2023-01-05T07:34:18;8.90;99.90
35635;DHT22;21757;43.610;1.440;2023-01-05T07:36:43;9.00;99.90
35635;DHT22;21757;43.610;1.440;2023-01-05T07:39:09;9.10;99.90
35635;DHT22;21757;43.610;1.440;2023-01-05T07:41:35;9.10;99.90
35635;DHT22;21757;43.610;1.440;2023-01-05T07:44:00;9.20;99.90
35635;DHT22;21757;43.610;1.440;2023-01-05T07:46:26;9.20;99.90
35635;DHT22;21757;43.610;1.440;2023-01-05T07:48:52;9.20;99.90
35635;DHT22;21757;43.610;1.440;2023-01-05T07:51:20;9.20;99.90
35635;DHT22;21757;43.610;1.440;2023-01-05T07:53:46;9.20;99.90
35635;DHT22;21757;43.610;1.440;2023-01-05T07:56:12;9.30;99.90
35635;DHT22;21757;43.610;1.440;2023-01-05T07:58:38;9.30;99.90
35635;DHT22;21757;43.610;1.440;2023-01-05T08:01:06;9.30;99.90
35635;DHT22;21757;43.610;1.440;2023-01-05T08:03:32;9.30;99.90
35635;DHT22;21757;43.610;1.440;2023-01-05T08:06:03;9.30;99.90
35635;DHT22;21757;43.610;1.440;2023-01-05T08:08:29;9.40;99.90
35635;DHT22;21757;43.610;1.440;2023-01-05T08:10:55;9.50;99.90
35635;DHT22;21757;43.610;1.440;2023-01-05T08:13:20;9.50;99.90
35635;DHT22;21757;43.610;1.440;2023-01-05T08:16:05;9.50;99.90
35635;DHT22;21757;43.610;1.440;2023-01-05T08:18:31;9.60;99.90
35635;DHT22;21757;43.610;1.440;2023-01-05T08:20:58;9.50;99.90
35635;DHT22;21757;43.610;1.440;2023-01-05T08:23:26;9.60;99.90
35635;DHT22;21757;43.610;1.440;2023-01-05T08:25:52;9.60;99.90
35635;DHT22;21757;43.610;1.440;2023-01-05T08:28:18;9.70;99.90
35635;DHT22;21757;43.610;1.440;2023-01-05T08:30:44;9.80;99.90
35635;DHT22;21757;43.610;1.440;2023-01-05T08:33:10;9.80;99.90
35635;DHT22;21757;43.610;1.440;2023-01-05T08:35:39;9.90;99.90
35635;DHT22;21757;43.610;1.440;2023-01-05T08:38:05;9.90;99.90
35635;DHT22;21757;43.610;1.440;2023-01-05T08:40:31;9.90;99.90
35635;DHT22;21757;43.610;1.440;2023-01-05T08:42:56;10.00;99.90
35635;DHT22;21757;43.610;1.440;2023-01-05T08:45:22;10.00;99.90
35635;DHT22;21757;43.610;1.440;2023-01-05T08:47:48;10.00;99.90
35635;DHT22;21757;43.610;1.440;2023-01-05T08:50:14;10.00;99.90
35635;DHT22;21757;43.610;1.440;2023-01-05T08:52:40;10.10;99.90
35635;DHT22;21757;43.610;1.440;2023-01-05T08:55:06;10.10;99.90
35635;DHT22;21757;43.610;1.440;2023-01-05T08:57:32;10.20;99.90
35635;DHT22;21757;43.610;1.440;2023-01-05T08:59:58;10.20;99.90
35635;DHT22;21757;43.610;1.440;2023-01-05T09:02:24;10.20;99.90
35635;DHT22;21757;43.610;1.440;2023-01-05T09:04:50;10.30;99.90
35635;DHT22;21757;43.610;1.440;2023-01-05T09:07:16;10.40;99.90
35635;DHT22;21757;43.610;1.440;2023-01-05T09:09:42;10.50;99.90
35635;DHT22;21757;43.610;1.440;2023-01-05T09:12:08;10.50;99.90
35635;DHT22;21757;43.610;1.440;2023-01-05T09:14:34;10.60;99.90
35635;DHT22;21757;43.610;1.440;2023-01-05T09:17:00;10.60;99.90
35635;DHT22;21757;43.610;1.440;2023-01-05T09:19:26;10.70;99.90
35635;DHT22;21757;43.610;1.440;2023-01-05T09:21:52;10.80;99.90
35635;DHT22;21757;43.610;1.440;2023-01-05T09:24:18;10.80;99.90
35635;DHT22;21757;43.610;1.440;2023-01-05T09:26:44;10.80;99.90
35635;DHT22;21757;43.610;1.440;2023-01-05T09:29:11;10.90;99.90
35635;DHT22;21757;43.610;1.440;2023-01-05T09:31:39;10.80;99.90
35635;DHT22;21757;43.610;1.440;2023-01-05T09:34:04;10.70;99.90
35635;DHT22;21757;43.610;1.440;2023-01-05T09:36:31;10.80;99.90
35635;DHT22;21757;43.610;1.440;2023-01-05T09:38:57;10.60;99.90
35635;DHT22;21757;43.610;1.440;2023-01-05T09:41:35;10.50;99.90
35635;DHT22;21757;43.610;1.440;2023-01-05T09:46:48;10.30;99.90
35635;DHT22;21757;43.610;1.440;2023-01-05T09:49:17;10.40;99.90
35635;DHT22;21757;43.610;1.440;2023-01-05T09:51:45;10.40;99.90
35635;DHT22;21757;43.610;1.440;2023-01-05T09:54:21;10.40;99.90
35635;DHT22;21757;43.610;1.440;2023-01-05T09:56:48;10.50;99.90
35635;DHT22;21757;43.610;1.440;2023-01-05T10:01:50;10.80;99.90
35635;DHT22;21757;43.610;1.440;2023-01-05T10:04:24;10.80;99.90
35635;DHT22;21757;43.610;1.440;2023-01-05T10:06:56;10.90;99.90
35635;DHT22;21757;43.610;1.440;2023-01-05T10:09:28;11.10;99.90
35635;DHT22;21757;43.610;1.440;2023-01-05T10:14:45;11.30;99.90
35635;DHT22;21757;43.610;1.440;2023-01-05T10:17:17;11.50;99.90
35635;DHT22;21757;43.610;1.440;2023-01-05T10:19:43;11.80;99.90
35635;DHT22;21757;43.610;1.440;2023-01-05T10:25:26;12.00;99.90
35635;DHT22;21757;43.610;1.440;2023-01-05T10:30:59;12.00;99.90
35635;DHT22;21757;43.610;1.440;2023-01-05T10:33:48;12.10;99.90
35635;DHT22;21757;43.610;1.440;2023-01-05T10:36:24;11.90;99.90
35635;DHT22;21757;43.610;1.440;2023-01-05T10:39:17;12.10;99.90
35635;DHT22;21757;43.610;1.440;2023-01-05T10:41:57;12.20;99.90
35635;DHT22;21757;43.610;1.440;2023-01-05T10:46:59;12.30;99.90
35635;DHT22;21757;43.610;1.440;2023-01-05T10:49:28;12.30;99.90
35635;DHT22;21757;43.610;1.440;2023-01-05T10:52:00;12.30;99.90
35635;DHT22;21757;43.610;1.440;2023-01-05T10:54:34;12.30;99.90
35635;DHT22;21757;43.610;1.440;2023-01-05T10:57:39;12.20;99.90
35635;DHT22;21757;43.610;1.440;2023-01-05T11:00:17;12.10;99.90
35635;DHT22;21757;43.610;1.440;2023-01-05T11:02:50;12.10;99.90
35635;DHT22;21757;43.610;1.440;2023-01-05T11:05:35;12.00;99.90
35635;DHT22;21757;43.610;1.440;2023-01-05T11:08:03;12.00;99.90
35635;DHT22;21757;43.610;1.440;2023-01-05T11:13:15;11.80;99.90
35635;DHT22;21757;43.610;1.440;2023-01-05T11:15:55;11.80;99.90
35635;DHT22;21757;43.610;1.440;2023-01-05T11:18:30;11.80;99.90
35635;DHT22;21757;43.610;1.440;2023-01-05T11:21:11;11.90;99.90
35635;DHT22;21757;43.610;1.440;2023-01-05T11:23:45;12.10;99.90
35635;DHT22;21757;43.610;1.440;2023-01-05T11:28:56;12.60;99.90
35635;DHT22;21757;43.610;1.440;2023-01-05T11:31:22;12.70;99.90
35635;DHT22;21757;43.610;1.440;2023-01-05T11:33:55;13.00;99.90
35635;DHT22;21757;43.610;1.440;2023-01-05T11:36:21;12.90;99.90
35635;DHT22;21757;43.610;1.440;2023-01-05T11:38:56;12.90;99.90
35635;DHT22;21757;43.610;1.440;2023-01-05T11:41:22;12.90;99.90
35635;DHT22;21757;43.610;1.440;2023-01-05T11:43:49;13.00;99.90
35635;DHT22;21757;43.610;1.440;2023-01-05T11:46:16;13.00;99.90
35635;DHT22;21757;43.610;1.440;2023-01-05T11:49:00;13.10;99.90
35635;DHT22;21757;43.610;1.440;2023-01-05T11:51:38;13.10;99.90
35635;DHT22;21757;43.610;1.440;2023-01-05T11:54:07;13.30;99.90
35635;DHT22;21757;43.610;1.440;2023-01-05T11:57:05;13.30;99.90
35635;DHT22;21757;43.610;1.440;2023-01-05T11:59:31;13.30;99.90
35635;DHT22;21757;43.610;1.440;2023-01-05T12:07:34;13.30;99.90
35635;DHT22;21757;43.610;1.440;2023-01-05T12:10:29;13.40;99.90
35635;DHT22;21757;43.610;1.440;2023-01-05T12:26:28;13.70;99.90
35635;DHT22;21757;43.610;1.440;2023-01-05T12:43:04;13.90;99.90
35635;DHT22;21757;43.610;1.440;2023-01-05T12:45:59;13.80;99.90
35635;DHT22;21757;43.610;1.440;2023-01-05T12:48:29;13.40;99.90
35635;DHT22;21757;43.610;1.440;2023-01-05T12:53:37;13.60;99.90
35635;DHT22;21757;43.610;1.440;2023-01-05T13:01:47;13.60;99.90
35635;DHT22;21757;43.610;1.440;2023-01-05T13:07:09;13.60;99.90
35635;DHT22;21757;43.610;1.440;2023-01-05T13:09:37;13.40;99.90
35635;DHT22;21757;43.610;1.440;2023-01-05T13:12:04;13.50;99.90
35635;DHT22;21757;43.610;1.440;2023-01-05T13:14:33;13.70;99.90
35635;DHT22;21757;43.610;1.440;2023-01-05T13:17:03;13.70;99.90
35635;DHT22;21757;43.610;1.440;2023-01-05T13:19:40;13.80;99.90
35635;DHT22;21757;43.610;1.440;2023-01-05T13:22:23;13.80;99.90
35635;DHT22;21757;43.610;1.440;2023-01-05T13:27:37;14.00;99.90
35635;DHT22;21757;43.610;1.440;2023-01-05T13:30:03;13.90;99.90
35635;DHT22;21757;43.610;1.440;2023-01-05T13:49:33;13.60;99.90
35635;DHT22;21757;43.610;1.440;2023-01-05T13:52:26;13.60;99.90
35635;DHT22;21757;43.610;1.440;2023-01-05T13:54:57;13.60;99.90
35635;DHT22;21757;43.610;1.440;2023-01-05T13:57:41;13.60;99.90
35635;DHT22;21757;43.610;1.440;2023-01-05T14:03:37;13.60;99.90
35635;DHT22;21757;43.610;1.440;2023-01-05T14:05:51;13.60;99.90
35635;DHT22;21757;43.610;1.440;2023-01-05T14:08:36;13.70;99.90
35635;DHT22;21757;43.610;1.440;2023-01-05T14:11:22;13.70;99.90
35635;DHT22;21757;43.610;1.440;2023-01-05T14:13:58;13.60;99.90
35635;DHT22;21757;43.610;1.440;2023-01-05T14:19:49;13.70;99.90
35635;DHT22;21757;43.610;1.440;2023-01-05T14:24:43;13.70;99.90
35635;DHT22;21757;43.610;1.440;2023-01-05T14:27:16;13.70;99.90
35635;DHT22;21757;43.610;1.440;2023-01-05T14:34:50;13.60;99.90
35635;DHT22;21757;43.610;1.440;2023-01-05T14:37:21;13.60;99.90
35635;DHT22;21757;43.610;1.440;2023-01-05T14:39:47;13.60;99.90
35635;DHT22;21757;43.610;1.440;2023-01-05T14:42:31;13.50;99.90
35635;DHT22;21757;43.610;1.440;2023-01-05T14:45:02;13.50;99.90
35635;DHT22;21757;43.610;1.440;2023-01-05T14:47:40;13.50;99.90
35635;DHT22;21757;43.610;1.440;2023-01-05T14:50:25;13.50;99.90
35635;DHT22;21757;43.610;1.440;2023-01-05T14:53:13;13.40;99.90
35635;DHT22;21757;43.610;1.440;2023-01-05T15:19:55;13.00;99.90
35635;DHT22;21757;43.610;1.440;2023-01-05T15:30:41;12.80;99.90
35635;DHT22;21757;43.610;1.440;2023-01-05T15:33:46;12.90;99.90
35635;DHT22;21757;43.610;1.440;2023-01-05T15:36:35;13.10;99.90
35635;DHT22;21757;43.610;1.440;2023-01-05T15:39:31;13.10;99.90
35635;DHT22;21757;43.610;1.440;2023-01-05T15:42:04;13.00;99.90
35635;DHT22;21757;43.610;1.440;2023-01-05T15:44:35;13.00;99.90
35635;DHT22;21757;43.610;1.440;2023-01-05T15:47:02;12.90;99.90
35635;DHT22;21757;43.610;1.440;2023-01-05T15:49:31;12.90;99.90
35635;DHT22;21757;43.610;1.440;2023-01-05T15:51:57;12.90;99.90
35635;DHT22;21757;43.610;1.440;2023-01-05T15:54:29;12.90;99.90
35635;DHT22;21757;43.610;1.440;2023-01-05T15:56:56;12.80;99.90
35635;DHT22;21757;43.610;1.440;2023-01-05T15:59:30;12.70;99.90
35635;DHT22;21757;43.610;1.440;2023-01-05T16:01:57;12.70;99.90
35635;DHT22;21757;43.610;1.440;2023-01-05T16:04:23;12.70;99.90
35635;DHT22;21757;43.610;1.440;2023-01-05T16:06:56;12.70;99.90
35635;DHT22;21757;43.610;1.440;2023-01-05T16:09:33;12.70;99.90
35635;DHT22;21757;43.610;1.440;2023-01-05T16:12:17;12.60;99.90
35635;DHT22;21757;43.610;1.440;2023-01-05T16:15:01;12.60;99.90
35635;DHT22;21757;43.610;1.440;2023-01-05T16:17:30;12.60;99.90
35635;DHT22;21757;43.610;1.440;2023-01-05T16:20:08;12.60;99.90
35635;DHT22;21757;43.610;1.440;2023-01-05T16:25:28;12.60;99.90
35635;DHT22;21757;43.610;1.440;2023-01-05T16:27:58;12.60;99.90
35635;DHT22;21757;43.610;1.440;2023-01-05T16:30:39;12.60;99.90
35635;DHT22;21757;43.610;1.440;2023-01-05T16:33:29;12.60;99.90
35635;DHT22;21757;43.610;1.440;2023-01-05T16:36:09;12.60;99.90
35635;DHT22;21757;43.610;1.440;2023-01-05T16:38:37;12.60;99.90
35635;DHT22;21757;43.610;1.440;2023-01-05T16:41:11;12.50;99.90
35635;DHT22;21757;43.610;1.440;2023-01-05T16:43:41;12.60;99.90
35635;DHT22;21757;43.610;1.440;2023-01-05T16:54:21;12.50;99.90
35635;DHT22;21757;43.610;1.440;2023-01-05T16:56:55;12.50;99.90
35635;DHT22;21757;43.610;1.440;2023-01-05T17:01:56;12.40;99.90
35635;DHT22;21757;43.610;1.440;2023-01-05T17:04:21;12.40;99.90
35635;DHT22;21757;43.610;1.440;2023-01-05T17:06:49;12.40;99.90
35635;DHT22;21757;43.610;1.440;2023-01-05T17:09:29;12.30;99.90
35635;DHT22;21757;43.610;1.440;2023-01-05T17:11:56;12.40;99.90
35635;DHT22;21757;43.610;1.440;2023-01-05T17:14:22;12.40;99.90
35635;DHT22;21757;43.610;1.440;2023-01-05T17:16:49;12.40;99.90
35635;DHT22;21757;43.610;1.440;2023-01-05T17:19:17;12.40;99.90
35635;DHT22;21757;43.610;1.440;2023-01-05T17:21:55;12.40;99.90
35635;DHT22;21757;43.610;1.440;2023-01-05T17:24:21;12.40;99.90
35635;DHT22;21757;43.610;1.440;2023-01-05T17:26:48;12.40;99.90
35635;DHT22;21757;43.610;1.440;2023-01-05T17:29:19;12.30;99.90
35635;DHT22;21757;43.610;1.440;2023-01-05T17:31:45;12.30;99.90
35635;DHT22;21757;43.610;1.440;2023-01-05T17:34:11;12.30;99.90
35635;DHT22;21757;43.610;1.440;2023-01-05T17:36:36;12.30;99.90
35635;DHT22;21757;43.610;1.440;2023-01-05T17:39:03;12.20;99.90
35635;DHT22;21757;43.610;1.440;2023-01-05T17:41:29;12.20;99.90
35635;DHT22;21757;43.610;1.440;2023-01-05T17:43:54;12.20;99.90
35635;DHT22;21757;43.610;1.440;2023-01-05T17:46:26;12.20;99.90
35635;DHT22;21757;43.610;1.440;2023-01-05T17:48:53;12.20;99.90
35635;DHT22;21757;43.610;1.440;2023-01-05T17:51:19;12.20;99.90
35635;DHT22;21757;43.610;1.440;2023-01-05T17:53:45;12.20;99.90
35635;DHT22;21757;43.610;1.440;2023-01-05T17:56:10;12.30;99.90
35635;DHT22;21757;43.610;1.440;2023-01-05T17:58:36;12.20;99.90
35635;DHT22;21757;43.610;1.440;2023-01-05T18:01:04;12.20;99.90
35635;DHT22;21757;43.610;1.440;2023-01-05T18:03:31;12.20;99.90
35635;DHT22;21757;43.610;1.440;2023-01-05T18:05:59;12.20;99.90
35635;DHT22;21757;43.610;1.440;2023-01-05T18:08:25;12.20;99.90
35635;DHT22;21757;43.610;1.440;2023-01-05T18:10:51;12.10;99.90
35635;DHT22;21757;43.610;1.440;2023-01-05T18:13:36;12.10;99.90
35635;DHT22;21757;43.610;1.440;2023-01-05T18:16:09;12.00;99.90
35635;DHT22;21757;43.610;1.440;2023-01-05T18:18:35;12.00;99.90
35635;DHT22;21757;43.610;1.440;2023-01-05T18:21:02;12.00;99.90
35635;DHT22;21757;43.610;1.440;2023-01-05T18:23:29;12.00;99.90
35635;DHT22;21757;43.610;1.440;2023-01-05T18:25:54;12.10;99.90
35635;DHT22;21757;43.610;1.440;2023-01-05T18:28:20;12.10;99.90
35635;DHT22;21757;43.610;1.440;2023-01-05T18:30:46;12.10;99.90
35635;DHT22;21757;43.610;1.440;2023-01-05T18:33:11;12.10;99.90
35635;DHT22;21757;43.610;1.440;2023-01-05T18:35:41;12.10;99.90
35635;DHT22;21757;43.610;1.440;2023-01-05T18:38:07;12.10;99.90
35635;DHT22;21757;43.610;1.440;2023-01-05T18:40:33;12.10;99.90
35635;DHT22;21757;43.610;1.440;2023-01-05T18:42:59;12.10;99.90
35635;DHT22;21757;43.610;1.440;2023-01-05T18:45:25;12.10;99.90
35635;DHT22;21757;43.610;1.440;2023-01-05T18:47:50;12.00;99.90
35635;DHT22;21757;43.610;1.440;2023-01-05T18:50:19;11.90;99.90
35635;DHT22;21757;43.610;1.440;2023-01-05T18:52:47;11.80;99.90